D Hanis, Texas
Current Conditions -  °F | °C
As of 12:51 AM on Monday 24 Nov 2014 (Local Time) from KHDO Reporting Station
Clear Clear  
Wind Chill: 54°   Ceiling: Unl
Heat Index: 54°   Visibility: 10mi
Dew Point: 38°   Wind: 20mph
Humidity: 55%   Direction: 10°N
Pressure: 29.88"   Gusts: 26mph
Location:  29.3507°N, 99.3117°W
Report Text: KHDO 240651Z AUTO 01017G23KT 10SM CLR 12/03 A2988 RMK AO2 SLP107 T01220033
Loading
Personal Weather Stations






























Interactive Weather Map New forecast layout! Learn more

10-Day Weather Forecast

Advertisements
Track Severe Weather on mobile